Time;durP1;ratioP1;P1;durP2;ratioP2;P2;SDS_P1;SDS_P2;PMS_P1;PMS_P2;Temp;Humidity;BMP_temperature;BMP_pressure;BME280_temperature;BME280_humidity;BME280_pressure;Samples;Min_cycle;Max_cycle;Signal;HPM_P1;HPM_P2
2021/12/12 00:01:44;;;;;;;5.28;2.42;;;;;;;5.47;60.54;101841.06;5057837;28;20028;-84
2021/12/12 00:04:15;;;;;;;2.57;1.83;;;;;;;5.55;60.16;101836.03;5052735;28;20400;-84
2021/12/12 00:06:50;;;;;;;8.50;2.25;;;;;;;5.67;59.79;101831.94;5059005;28;20036;-84
2021/12/12 00:09:31;;;;;;;4.30;1.85;;;;;;;5.56;60.12;101835.19;5051652;28;20065;-83
2021/12/12 00:11:58;;;;;;;3.85;2.10;;;;;;;5.57;60.21;101834.31;5055001;28;20085;-84
2021/12/12 00:14:30;;;;;;;5.60;2.50;;;;;;;5.48;60.06;101846.22;5059135;28;20089;-84
2021/12/12 00:16:57;;;;;;;7.90;2.30;;;;;;;5.57;60.25;101840.34;5056296;28;20048;-84
2021/12/12 00:19:26;;;;;;;7.05;3.08;;;;;;;5.56;60.55;101842.91;5054593;28;20040;-84
2021/12/12 00:21:55;;;;;;;4.20;2.70;;;;;;;5.66;60.23;101845.66;5060955;28;20048;-84
2021/12/12 00:24:22;;;;;;;8.20;2.10;;;;;;;5.74;60.22;101846.63;5051700;28;20055;-84
2021/12/12 00:26:50;;;;;;;5.10;1.95;;;;;;;5.55;60.56;101852.34;5052589;28;20037;-84
2021/12/12 00:29:17;;;;;;;3.95;2.28;;;;;;;5.55;60.05;101851.47;5054011;28;20049;-84
2021/12/12 00:31:45;;;;;;;5.10;1.90;;;;;;;5.70;59.89;101849.16;5050200;28;20044;-84
2021/12/12 00:34:11;;;;;;;5.68;2.05;;;;;;;5.56;59.92;101846.38;5053646;28;20029;-84
2021/12/12 00:36:40;;;;;;;9.48;2.20;;;;;;;5.59;60.65;101843.84;5053704;28;20448;-84
2021/12/12 00:39:28;;;;;;;3.40;1.83;;;;;;;5.64;60.27;101836.16;5048752;28;20025;-84
2021/12/12 00:42:02;;;;;;;2.78;1.60;;;;;;;5.64;59.81;101839.63;5048082;28;20102;-83
2021/12/12 00:44:29;;;;;;;5.57;2.17;;;;;;;5.42;61.18;101848.69;5056114;28;20025;-84
2021/12/12 00:46:59;;;;;;;5.07;2.15;;;;;;;5.63;60.72;101849.88;5058926;28;20025;-84
2021/12/12 00:49:25;;;;;;;4.38;1.85;;;;;;;5.64;59.99;101856.78;5051511;28;20033;-84
2021/12/12 00:51:51;;;;;;;6.65;2.38;;;;;;;5.65;60.21;101856.84;5035681;28;20531;-84
2021/12/12 00:54:19;;;;;;;5.18;2.03;;;;;;;5.65;60.56;101864.56;5056729;28;20532;-84
2021/12/12 00:56:46;;;;;;;5.75;2.63;;;;;;;5.74;60.52;101864.69;5057371;28;20021;-84
2021/12/12 00:59:12;;;;;;;5.78;2.08;;;;;;;5.75;60.62;101865.56;5060201;28;20062;-84
2021/12/12 01:01:46;;;;;;;8.88;2.33;;;;;;;5.72;60.44;101860.34;5055667;28;20033;-84
2021/12/12 01:04:17;;;;;;;5.45;1.88;;;;;;;5.74;60.09;101856.94;5058282;28;20535;-84
2021/12/12 01:06:44;;;;;;;5.85;2.22;;;;;;;5.73;60.84;101856.94;5059003;28;20033;-84
2021/12/12 01:09:15;;;;;;;7.20;2.53;;;;;;;5.62;60.25;101859.38;5055333;28;20041;-84
2021/12/12 01:11:48;;;;;;;5.20;2.05;;;;;;;5.64;60.61;101851.63;5056552;28;20044;-84
2021/12/12 01:14:18;;;;;;;7.72;2.58;;;;;;;5.63;60.53;101847.31;5057880;28;20125;-84
2021/12/12 01:17:00;;;;;;;4.57;2.20;;;;;;;5.64;60.81;101849.06;5059270;28;20036;-84
2021/12/12 01:19:31;;;;;;;6.55;2.35;;;;;;;5.57;60.73;101844.63;5061188;28;20056;-84
2021/12/12 01:22:02;;;;;;;5.30;1.85;;;;;;;5.60;60.51;101847.25;5057654;28;20166;-84
2021/12/12 01:24:33;;;;;;;5.38;1.92;;;;;;;5.62;61.27;101832.72;5057581;28;20037;-84
2021/12/12 01:27:00;;;;;;;6.07;2.22;;;;;;;5.60;60.61;101827.50;5057250;28;20028;-84
2021/12/12 01:29:26;;;;;;;5.43;2.25;;;;;;;5.66;60.82;101825.03;5060706;28;20013;-84
2021/12/12 01:31:54;;;;;;;11.88;2.63;;;;;;;5.49;60.65;101829.06;5053875;28;20442;-84
2021/12/12 01:34:25;;;;;;;7.00;2.40;;;;;;;5.63;60.34;101830.16;5053536;28;20040;-84
2021/12/12 01:39:38;;;;;;;5.63;2.53;;;;;;;5.63;60.93;101837.00;5059758;28;20060;-84
2021/12/12 01:42:34;;;;;;;4.65;2.30;;;;;;;5.69;60.51;101832.81;5047216;28;20549;-83
2021/12/12 01:45:06;;;;;;;4.32;1.77;;;;;;;5.53;60.26;101828.28;5063257;28;20059;-84
2021/12/12 01:47:44;;;;;;;5.60;2.15;;;;;;;5.64;60.34;101833.59;5054005;28;20035;-84
2021/12/12 01:50:16;;;;;;;3.80;2.00;;;;;;;5.44;60.97;101839.28;5050007;28;20448;-84
2021/12/12 01:52:42;;;;;;;5.97;1.92;;;;;;;5.61;61.11;101834.41;5057254;28;20037;-84
2021/12/12 01:55:22;;;;;;;6.03;1.90;;;;;;;5.38;60.21;101830.59;5054817;28;20041;-84
2021/12/12 01:57:50;;;;;;;9.75;2.75;;;;;;;5.66;60.02;101829.31;5062570;28;20517;-84
2021/12/12 02:00:38;;;;;;;3.95;2.13;;;;;;;5.65;60.09;101825.03;5048558;28;20045;-84
2021/12/12 02:03:08;;;;;;;10.82;3.00;;;;;;;5.69;60.26;101829.38;5051093;28;20083;-84
2021/12/12 02:05:36;;;;;;;3.20;1.73;;;;;;;5.50;60.71;101827.34;5058873;28;20082;-84
2021/12/12 02:08:07;;;;;;;5.15;2.20;;;;;;;5.50;60.54;101829.94;5057020;28;20151;-84
2021/12/12 02:10:38;;;;;;;3.33;1.83;;;;;;;5.67;60.27;101813.03;5051110;28;20436;-84
2021/12/12 02:13:06;;;;;;;6.75;2.13;;;;;;;5.63;60.10;101814.69;5056815;28;20049;-84
2021/12/12 02:15:35;;;;;;;5.55;2.13;;;;;;;5.56;60.62;101812.88;5053894;28;20370;-84
2021/12/12 02:18:07;;;;;;;3.55;2.42;;;;;;;5.50;60.11;101811.91;5056349;28;20052;-84
2021/12/12 02:20:40;;;;;;;6.53;2.20;;;;;;;5.63;60.65;101809.53;5060097;28;20449;-84
2021/12/12 02:36:51;;;;;;;4.03;1.95;;;;;;;5.66;61.01;101803.53;5060503;28;20052;-84
2021/12/12 02:39:17;;;;;;;6.25;2.30;;;;;;;5.46;61.27;101801.53;5054886;28;20029;-84
2021/12/12 02:41:47;;;;;;;6.50;2.03;;;;;;;5.46;62.23;101798.09;5048402;28;20082;-84
2021/12/12 02:44:13;;;;;;;6.35;2.28;;;;;;;5.56;61.12;101802.56;5057977;28;20393;-84
2021/12/12 02:46:42;;;;;;;8.27;2.28;;;;;;;5.66;61.44;101807.00;5054943;28;20040;-84
2021/12/12 02:49:24;;;;;;;6.82;2.45;;;;;;;5.66;60.87;101799.25;5050549;28;20068;-84
2021/12/12 02:51:51;;;;;;;5.53;2.15;;;;;;;5.66;61.21;101795.81;5050756;28;20159;-84
2021/12/12 02:54:16;;;;;;;5.28;2.60;;;;;;;5.70;60.72;101787.28;5056248;28;20033;-84
2021/12/12 02:56:46;;;;;;;9.02;2.47;;;;;;;5.79;60.86;101785.72;5054532;28;20027;-84
2021/12/12 02:59:16;;;;;;;7.88;2.63;;;;;;;5.69;60.72;101788.13;5052114;28;20033;-84
2021/12/12 03:01:57;;;;;;;7.63;2.60;;;;;;;5.57;61.53;101791.38;5055593;28;20036;-84
2021/12/12 03:04:25;;;;;;;9.55;2.58;;;;;;;5.67;61.20;101780.38;5054484;28;20037;-84
2021/12/12 03:06:51;;;;;;;5.18;2.40;;;;;;;5.67;61.57;101780.38;5056069;28;20045;-84
2021/12/12 03:09:19;;;;;;;4.35;2.33;;;;;;;5.65;60.91;101787.25;5050084;28;20033;-84
2021/12/12 03:11:47;;;;;;;5.40;2.25;;;;;;;5.76;61.10;101788.25;5054272;28;20037;-84
2021/12/12 03:14:13;;;;;;;6.00;2.72;;;;;;;5.66;62.21;101786.38;5055867;28;20029;-84
2021/12/12 03:16:39;;;;;;;5.05;2.45;;;;;;;5.74;61.78;101782.19;5062378;28;20521;-84
2021/12/12 03:19:06;;;;;;;5.93;2.15;;;;;;;5.77;61.54;101778.81;5059004;28;20025;-84
2021/12/12 03:21:37;;;;;;;2.47;1.85;;;;;;;5.71;61.79;101779.56;5053085;28;20025;-84
2021/12/12 03:24:08;;;;;;;7.15;2.67;;;;;;;5.53;62.01;101781.91;5050204;28;20517;-84
2021/12/12 03:26:35;;;;;;;4.63;2.67;;;;;;;5.50;62.35;101783.53;5057177;28;20021;-84
2021/12/12 03:29:01;;;;;;;7.03;2.90;;;;;;;5.60;62.80;101790.56;5060094;28;20028;-84
2021/12/12 03:31:38;;;;;;;4.93;2.10;;;;;;;5.66;61.83;101785.50;5053301;28;20037;-84
2021/12/12 03:34:06;;;;;;;7.30;2.13;;;;;;;5.60;62.43;101788.84;5055530;28;20489;-84
2021/12/12 03:36:32;;;;;;;7.22;2.92;;;;;;;5.78;62.15;101796.00;5047584;28;20514;-84
2021/12/12 03:39:05;;;;;;;8.93;2.80;;;;;;;5.82;61.98;101790.94;5053866;28;20039;-84
2021/12/12 03:41:33;;;;;;;6.47;2.95;;;;;;;5.76;62.01;101788.25;5054321;28;20056;-84
2021/12/12 03:44:02;;;;;;;6.63;2.30;;;;;;;5.88;61.58;101793.59;5056791;28;20512;-84
2021/12/12 03:46:27;;;;;;;6.30;2.38;;;;;;;5.90;62.02;101788.44;5051506;28;20607;-84
2021/12/12 03:48:54;;;;;;;10.20;3.10;;;;;;;5.89;61.23;101791.88;5061029;28;20037;-84
2021/12/12 03:51:23;;;;;;;6.00;2.63;;;;;;;5.94;61.74;101791.09;5054094;28;20037;-84
2021/12/12 03:53:49;;;;;;;7.15;2.72;;;;;;;5.58;62.77;101787.09;5047839;28;20482;-84
2021/12/12 03:56:16;;;;;;;10.07;3.17;;;;;;;5.84;62.69;101794.38;5050603;28;20051;-84
2021/12/12 03:58:43;;;;;;;5.60;2.72;;;;;;;5.85;62.42;101792.69;5060240;28;20040;-84
2021/12/12 04:01:13;;;;;;;7.85;3.17;;;;;;;5.94;62.31;101792.81;5058899;28;20033;-84
2021/12/12 04:03:40;;;;;;;10.10;2.92;;;;;;;5.70;62.78;101802.75;5039379;28;20063;-84
2021/12/12 04:06:10;;;;;;;10.00;2.75;;;;;;;5.88;62.64;101797.88;5043052;28;20475;-84
2021/12/12 04:08:39;;;;;;;7.53;3.30;;;;;;;5.89;62.71;101800.47;5046098;28;20029;-84
2021/12/12 04:11:11;;;;;;;6.95;2.83;;;;;;;5.76;62.97;101811.47;5051974;28;20108;-84
2021/12/12 04:13:41;;;;;;;5.65;2.38;;;;;;;5.94;62.16;101805.72;5055286;28;20401;-84
2021/12/12 04:16:07;;;;;;;9.75;2.55;;;;;;;5.85;62.47;101809.03;5057983;28;20032;-84
2021/12/12 04:18:33;;;;;;;6.07;2.85;;;;;;;5.84;63.35;101801.25;5050915;28;20503;-84
2021/12/12 04:20:58;;;;;;;4.60;2.72;;;;;;;5.96;62.88;101810.03;5066337;28;20053;-83
2021/12/12 04:23:27;;;;;;;4.10;2.47;;;;;;;5.96;62.08;101799.72;5052538;28;20064;-84
2021/12/12 04:25:53;;;;;;;9.73;2.85;;;;;;;5.92;62.47;101812.56;5052557;28;20262;-84
2021/12/12 04:28:19;;;;;;;5.05;2.92;;;;;;;5.87;62.42;101806.44;5051852;28;20497;-84
2021/12/12 04:30:45;;;;;;;7.35;2.53;;;;;;;5.88;62.79;101808.19;5058534;28;20037;-84
2021/12/12 04:33:13;;;;;;;6.35;3.20;;;;;;;5.69;62.93;101809.63;5052604;28;20661;-84
2021/12/12 04:35:39;;;;;;;6.90;2.95;;;;;;;5.86;62.69;101805.56;5054115;28;20074;-84
2021/12/12 04:38:05;;;;;;;7.75;2.45;;;;;;;5.74;63.47;101813.13;5049907;28;20033;-84
2021/12/12 04:40:35;;;;;;;6.82;3.35;;;;;;;5.89;62.78;101802.19;5056179;28;20030;-84
2021/12/12 04:43:02;;;;;;;8.43;3.17;;;;;;;5.88;63.04;101797.88;5052453;28;20043;-84
2021/12/12 04:45:57;;;;;;;7.88;2.97;;;;;;;5.98;62.85;101797.16;5046816;28;20037;-84
2021/12/12 04:51:26;;;;;;;4.75;2.78;;;;;;;5.88;64.48;101806.50;5053146;28;20040;-84
2021/12/12 04:54:15;;;;;;;8.35;3.15;;;;;;;5.93;63.88;101807.41;5054953;28;20040;-83
2021/12/12 04:56:51;;;;;;;6.32;2.28;;;;;;;5.89;64.77;101799.63;5016205;28;20049;-84
2021/12/12 04:59:32;;;;;;;9.60;2.80;;;;;;;6.00;64.00;101795.47;5045760;28;20124;-84
2021/12/12 05:02:09;;;;;;;9.95;2.80;;;;;;;5.90;64.37;101798.75;5046801;28;20041;-84
2021/12/12 05:04:40;;;;;;;5.28;2.55;;;;;;;5.91;65.44;101805.66;5047740;28;20032;-84
2021/12/12 05:07:15;;;;;;;11.80;2.60;;;;;;;5.91;64.79;101800.50;5051999;28;20497;-84
2021/12/12 05:09:54;;;;;;;9.57;2.72;;;;;;;6.04;64.78;101792.06;5059855;28;20041;-84
2021/12/12 05:12:27;;;;;;;7.07;2.88;;;;;;;6.01;64.59;101790.31;5061653;28;20095;-84
2021/12/12 05:15:04;;;;;;;7.20;2.92;;;;;;;6.09;65.01;101794.72;5051432;28;20032;-83
2021/12/12 05:17:38;;;;;;;13.23;2.65;;;;;;;6.12;64.33;101792.19;5052965;28;20064;-84
2021/12/12 05:20:10;;;;;;;9.27;2.58;;;;;;;5.92;65.46;101790.19;5046770;28;20077;-84
2021/12/12 05:22:52;;;;;;;6.85;3.47;;;;;;;6.15;64.56;101795.69;5048922;28;20036;-84
2021/12/12 05:25:22;;;;;;;4.15;2.50;;;;;;;6.11;65.39;101791.31;5053685;28;20037;-84
2021/12/12 05:27:53;;;;;;;7.05;2.80;;;;;;;6.11;66.11;101788.75;5048209;28;20033;-84
2021/12/12 05:30:26;;;;;;;5.32;2.67;;;;;;;5.97;66.63;101790.28;5052073;28;20025;-84
2021/12/12 05:32:53;;;;;;;8.90;2.75;;;;;;;5.90;67.25;101791.91;5051616;28;20128;-83
2021/12/12 05:35:23;;;;;;;7.45;2.80;;;;;;;5.89;66.78;101800.47;5063218;28;20024;-84
2021/12/12 05:37:51;;;;;;;9.65;2.90;;;;;;;5.97;67.02;101795.44;5061446;28;20091;-84
2021/12/12 05:40:18;;;;;;;5.13;2.80;;;;;;;6.06;67.16;101792.97;5052134;28;20115;-84
2021/12/12 05:42:44;;;;;;;5.10;2.60;;;;;;;5.96;67.40;101788.53;5046307;28;20519;-84
2021/12/12 05:45:10;;;;;;;9.55;3.33;;;;;;;6.00;67.15;101787.75;5053930;28;20037;-84
2021/12/12 05:47:37;;;;;;;8.32;3.10;;;;;;;6.08;67.85;101786.13;5060448;28;20111;-84
2021/12/12 05:50:06;;;;;;;7.72;3.10;;;;;;;6.06;67.23;101784.38;5052465;28;20036;-84
2021/12/12 05:52:32;;;;;;;7.97;3.80;;;;;;;6.06;67.27;101789.53;5059180;28;20040;-84
2021/12/12 05:54:59;;;;;;;13.77;8.23;;;;;;;6.13;67.32;101788.78;5053037;28;20033;-84
2021/12/12 05:57:26;;;;;;;11.27;7.45;;;;;;;6.11;68.14;101796.47;5057786;28;20386;-84
2021/12/12 05:59:54;;;;;;;46.35;24.63;;;;;;;6.01;68.11;101792.91;5053568;28;20055;-84
2021/12/12 06:02:21;;;;;;;66.32;32.55;;;;;;;5.91;68.46;101797.94;5056360;28;20033;-84
2021/12/12 06:04:47;;;;;;;39.25;23.30;;;;;;;6.04;68.92;101795.53;5057794;28;20117;-84
2021/12/12 06:07:16;;;;;;;32.72;18.33;;;;;;;5.97;69.01;101805.75;5064152;28;20116;-84
2021/12/12 06:09:43;;;;;;;21.20;10.93;;;;;;;6.01;69.55;101804.94;5053048;28;20501;-84
2021/12/12 06:12:09;;;;;;;8.90;5.82;;;;;;;5.96;69.50;101804.00;5053653;28;20481;-84
2021/12/12 06:14:35;;;;;;;12.38;3.38;;;;;;;6.12;69.98;101805.09;5053659;28;20041;-84
2021/12/12 06:17:05;;;;;;;3.83;2.53;;;;;;;5.99;69.46;101801.47;5060882;28;20083;-84
2021/12/12 06:19:32;;;;;;;8.05;2.47;;;;;;;6.14;69.95;101805.97;5057863;28;20033;-84
2021/12/12 06:21:59;;;;;;;10.15;2.63;;;;;;;5.96;70.21;101804.88;5034679;28;20040;-84
2021/12/12 06:24:27;;;;;;;6.07;2.08;;;;;;;6.02;69.91;101801.50;5052847;28;20110;-84
2021/12/12 06:26:56;;;;;;;4.80;2.28;;;;;;;6.13;69.96;101810.25;5049475;28;20028;-84
2021/12/12 06:29:22;;;;;;;10.25;3.00;;;;;;;6.15;70.22;101797.41;5072938;28;20119;-85
2021/12/12 06:31:50;;;;;;;6.80;2.28;;;;;;;6.01;70.47;101795.47;5052391;28;20178;-85
2021/12/12 06:34:17;;;;;;;7.10;3.40;;;;;;;6.19;69.45;101791.44;5052387;28;20394;-84
2021/12/12 06:36:43;;;;;;;4.35;2.40;;;;;;;6.19;69.65;101789.72;5055974;28;20057;-84
2021/12/12 06:39:11;;;;;;;6.03;2.25;;;;;;;6.10;70.73;101787.00;5052518;28;22780;-84
2021/12/12 06:41:37;;;;;;;5.65;2.65;;;;;;;6.12;69.56;101787.03;5048926;28;20036;-85
2021/12/12 06:44:05;;;;;;;3.67;2.33;;;;;;;6.13;69.86;101789.63;5054488;28;20104;-84
2021/12/12 06:46:31;;;;;;;8.00;2.67;;;;;;;6.11;70.46;101795.63;5061702;28;20034;-84
2021/12/12 06:48:58;;;;;;;9.55;2.90;;;;;;;6.24;69.65;101797.53;5055678;28;20021;-84
2021/12/12 06:51:27;;;;;;;5.13;2.78;;;;;;;6.16;69.95;101799.16;5050565;28;20033;-84
2021/12/12 06:53:53;;;;;;;5.68;2.15;;;;;;;6.23;69.71;101793.19;5057214;28;20040;-84
2021/12/12 06:56:20;;;;;;;5.22;2.35;;;;;;;6.18;70.27;101797.44;5049941;28;20482;-84
2021/12/12 06:58:48;;;;;;;4.43;2.47;;;;;;;6.22;70.23;101788.88;5060380;28;20025;-84
2021/12/12 07:01:21;;;;;;;6.60;2.28;;;;;;;6.31;69.52;101795.03;5057929;28;20103;-84
2021/12/12 07:03:49;;;;;;;5.80;2.45;;;;;;;6.11;70.33;101793.03;5055154;28;20114;-84
2021/12/12 07:06:26;;;;;;;5.25;2.28;;;;;;;6.29;69.72;101794.16;5053345;28;20037;-84
2021/12/12 07:08:53;;;;;;;4.88;2.17;;;;;;;6.28;69.59;101796.69;5054565;28;20113;-84
2021/12/12 07:11:21;;;;;;;5.88;2.53;;;;;;;6.23;70.45;101798.34;5055030;28;20404;-84
2021/12/12 07:13:48;;;;;;;5.57;2.55;;;;;;;6.22;70.31;101797.47;5049723;28;20056;-84
2021/12/12 07:16:14;;;;;;;7.40;2.80;;;;;;;6.27;69.79;101803.59;5058019;28;20036;-84
2021/12/12 07:18:40;;;;;;;5.72;2.30;;;;;;;6.26;70.08;101793.25;5055720;28;20057;-84
2021/12/12 07:21:11;;;;;;;5.40;2.78;;;;;;;6.20;70.57;101794.03;5050846;28;20025;-84
2021/12/12 07:23:40;;;;;;;7.43;2.67;;;;;;;6.20;70.17;101796.59;5048817;28;20437;-84
2021/12/12 07:26:07;;;;;;;4.65;1.95;;;;;;;6.18;70.36;101810.34;5048466;28;20737;-84
2021/12/12 07:28:34;;;;;;;5.82;2.40;;;;;;;6.16;70.51;101794.81;5063322;28;20482;-84
2021/12/12 07:31:06;;;;;;;3.70;1.60;;;;;;;6.27;70.79;101803.59;5058438;28;20469;-84
2021/12/12 07:33:33;;;;;;;4.75;2.00;;;;;;;6.23;70.27;101801.81;5048069;28;20401;-85
2021/12/12 07:36:06;;;;;;;5.47;2.15;;;;;;;6.32;70.79;101801.06;5053117;28;20032;-84
2021/12/12 07:38:33;;;;;;;4.90;2.17;;;;;;;6.16;70.49;101794.81;5055025;28;20025;-85
2021/12/12 07:41:00;;;;;;;5.38;2.05;;;;;;;6.12;71.14;101802.50;5053809;28;20037;-84
2021/12/12 07:43:29;;;;;;;5.38;1.90;;;;;;;6.20;71.08;101808.63;5055213;28;20565;-84
2021/12/12 07:45:56;;;;;;;5.50;2.00;;;;;;;6.12;71.14;101810.25;5047348;28;20076;-84
2021/12/12 07:48:21;;;;;;;5.30;2.45;;;;;;;6.25;71.21;101809.56;5049670;28;20075;-84
2021/12/12 07:50:48;;;;;;;5.38;1.80;;;;;;;6.29;70.75;101811.34;5075021;28;20044;-84
2021/12/12 07:53:14;;;;;;;4.22;1.88;;;;;;;6.38;70.34;101806.31;5048484;28;20111;-84
2021/12/12 07:55:40;;;;;;;2.80;1.83;;;;;;;6.31;71.06;101804.47;5043659;28;20037;-84
2021/12/12 07:58:12;;;;;;;3.40;2.08;;;;;;;6.37;70.41;101817.47;5045508;28;20064;-84
2021/12/12 08:00:40;;;;;;;2.95;1.63;;;;;;;6.38;70.12;101814.03;5050791;28;20043;-84
2021/12/12 08:03:06;;;;;;;3.60;2.10;;;;;;;6.28;71.33;101813.03;5053099;28;20401;-84
2021/12/12 08:05:34;;;;;;;4.45;2.00;;;;;;;6.22;71.72;101822.41;5055848;28;20020;-84
2021/12/12 08:08:03;;;;;;;4.30;2.03;;;;;;;6.39;70.53;101823.53;5054395;28;20122;-84
2021/12/12 08:10:29;;;;;;;5.00;2.28;;;;;;;6.37;71.27;101830.34;5069438;28;20494;-84
2021/12/12 08:12:55;;;;;;;7.20;3.28;;;;;;;6.30;71.18;101832.03;5049111;28;20041;-84
2021/12/12 08:15:21;;;;;;;6.05;2.00;;;;;;;6.33;71.27;101828.59;5045622;28;20044;-84
2021/12/12 08:17:47;;;;;;;4.32;2.05;;;;;;;6.38;70.95;101832.09;5055282;28;20029;-84
2021/12/12 08:20:16;;;;;;;4.80;1.65;;;;;;;6.40;71.36;101826.09;5054504;28;20087;-84
2021/12/12 08:22:43;;;;;;;5.60;1.77;;;;;;;6.47;71.23;101814.16;5054672;28;20033;-84
2021/12/12 08:25:11;;;;;;;6.82;1.83;;;;;;;6.38;71.30;101824.38;5041224;28;20406;-84
2021/12/12 08:27:37;;;;;;;5.00;2.58;;;;;;;6.40;71.36;101817.50;5033126;28;20120;-84
2021/12/12 08:30:05;;;;;;;5.45;2.53;;;;;;;6.33;72.08;101826.03;5067027;28;20158;-83
2021/12/12 08:32:33;;;;;;;6.68;1.90;;;;;;;6.49;71.35;101823.69;5055276;28;20424;-84
2021/12/12 08:34:59;;;;;;;3.65;1.65;;;;;;;6.46;70.91;101831.34;5053909;28;20045;-84
2021/12/12 08:37:27;;;;;;;2.45;1.25;;;;;;;6.27;71.58;101839.72;5055241;28;20044;-84
2021/12/12 08:39:54;;;;;;;4.00;1.40;;;;;;;6.43;71.04;101844.22;5055410;28;20080;-84
2021/12/12 08:42:20;;;;;;;3.17;1.15;;;;;;;6.53;70.94;101843.53;5055891;28;20025;-84
2021/12/12 08:44:46;;;;;;;3.72;0.95;;;;;;;6.43;71.16;101843.34;5049054;28;20099;-84
2021/12/12 08:47:12;;;;;;;2.90;1.30;;;;;;;6.49;71.08;101853.78;5050369;28;20032;-84
2021/12/12 08:49:40;;;;;;;2.85;1.10;;;;;;;6.43;70.93;101844.22;5044017;28;20092;-84
2021/12/12 08:52:13;;;;;;;2.00;1.13;;;;;;;6.42;70.66;101847.66;5055309;28;20090;-84
2021/12/12 08:54:41;;;;;;;3.75;0.98;;;;;;;6.55;70.86;101843.53;5046017;28;20037;-84
2021/12/12 08:57:14;;;;;;;2.85;1.20;;;;;;;6.50;70.88;101840.91;5048626;28;20397;-83
2021/12/12 08:59:45;;;;;;;1.67;1.17;;;;;;;6.60;70.61;101841.91;5033286;28;20151;-84
2021/12/12 09:02:13;;;;;;;1.23;0.98;;;;;;;6.56;71.15;101842.69;5046716;28;20040;-84
2021/12/12 09:04:43;;;;;;;1.70;1.00;;;;;;;6.62;70.60;101826.41;5058426;28;20112;-84
2021/12/12 09:07:14;;;;;;;1.77;0.77;;;;;;;6.49;70.41;101828.84;5058611;28;20052;-84
2021/12/12 09:09:46;;;;;;;2.60;1.13;;;;;;;6.51;71.34;101831.47;5049493;28;20452;-84
2021/12/12 09:12:19;;;;;;;1.67;1.23;;;;;;;6.57;71.26;101837.53;5051233;28;20128;-84
2021/12/12 09:14:51;;;;;;;2.25;1.40;;;;;;;6.68;70.98;101832.53;5060829;28;20477;-84
2021/12/12 09:17:39;;;;;;;1.45;1.00;;;;;;;6.71;69.86;101836.84;5058238;28;20493;-84
2021/12/12 09:20:14;;;;;;;3.70;1.00;;;;;;;6.66;70.62;101838.53;5061126;28;20036;-84
2021/12/12 09:22:45;;;;;;;;;;;;;;;6.61;70.51;101846.19;5063438;28;20033;-84
2021/12/12 09:25:12;;;;;;;1.90;0.80;;;;;;;6.72;69.78;101849.81;5056155;28;19970;-84
2021/12/12 09:27:50;;;;;;;1.42;1.15;;;;;;;6.57;70.91;101852.19;5062712;28;20040;-84
2021/12/12 09:30:22;;;;;;;1.52;0.85;;;;;;;6.69;71.48;101856.63;5055904;28;20045;-84
2021/12/12 09:32:54;;;;;;;1.33;0.90;;;;;;;6.74;70.47;101857.53;5058160;28;20520;-84
2021/12/12 09:35:28;;;;;;;1.27;0.98;;;;;;;6.81;71.00;101849.03;5061152;28;20032;-83
2021/12/12 09:38:15;;;;;;;1.20;0.73;;;;;;;6.73;70.68;101848.94;5055261;28;20147;-84
2021/12/12 09:41:05;;;;;;;1.83;1.00;;;;;;;6.72;70.21;101844.63;5060647;28;20028;-84
2021/12/12 09:43:56;;;;;;;1.25;0.88;;;;;;;6.71;70.24;101844.59;5054380;28;20558;-84
2021/12/12 09:47:10;;;;;;;4.30;1.92;;;;;;;6.86;70.47;101839.63;5059782;28;20471;-84
2021/12/12 09:53:11;;;;;;;2.75;1.30;;;;;;;6.94;70.13;101850.88;5037918;28;20059;-84
2021/12/12 09:55:49;;;;;;;0.98;0.82;;;;;;;6.82;70.42;101846.47;5053526;28;20042;-84
2021/12/12 09:58:24;;;;;;;1.88;1.10;;;;;;;6.92;70.30;101850.88;5055036;28;20033;-84
2021/12/12 10:00:58;;;;;;;1.95;0.93;;;;;;;6.89;69.93;101853.44;5059579;28;20052;-84
2021/12/12 10:04:04;;;;;;;1.92;1.20;;;;;;;6.94;69.96;101853.47;5055660;28;20036;-84
2021/12/12 10:07:08;;;;;;;2.25;1.08;;;;;;;6.96;70.40;101844.03;5042770;28;20180;-84
2021/12/12 10:09:41;;;;;;;2.90;0.93;;;;;;;7.02;70.10;101855.28;5055211;28;20040;-84
2021/12/12 10:12:23;;;;;;;1.65;1.20;;;;;;;7.00;69.57;101846.66;5053947;28;20499;-83
2021/12/12 10:15:05;;;;;;;2.17;1.02;;;;;;;7.01;69.59;101847.53;5052155;28;20499;-84
2021/12/12 10:17:37;;;;;;;1.48;0.80;;;;;;;6.97;69.98;101838.00;5051159;28;20045;-84
2021/12/12 10:20:33;;;;;;;1.77;1.20;;;;;;;6.94;69.63;101844.00;5052275;28;20091;-84
2021/12/12 10:23:09;;;;;;;1.63;1.15;;;;;;;6.98;70.00;101852.66;5050694;28;20095;-84
2021/12/12 10:25:38;;;;;;;1.25;0.90;;;;;;;7.09;69.51;101843.31;5057394;28;20028;-84
2021/12/12 10:28:27;;;;;;;1.80;1.08;;;;;;;7.11;69.31;101841.59;5057723;28;20029;-84
2021/12/12 10:30:56;;;;;;;4.05;1.35;;;;;;;7.08;69.57;101842.44;5045360;28;20124;-84
2021/12/12 10:33:35;;;;;;;2.38;1.17;;;;;;;7.21;68.83;101840.84;5051525;28;20094;-83
2021/12/12 10:36:07;;;;;;;1.25;1.05;;;;;;;7.26;68.95;101831.41;5059675;28;20021;-84
2021/12/12 10:38:51;;;;;;;1.55;1.17;;;;;;;7.17;69.73;101835.66;5062428;28;20020;-84
2021/12/12 10:41:24;;;;;;;2.17;0.90;;;;;;;7.21;69.80;101837.41;5053946;28;20455;-84
2021/12/12 10:44:05;;;;;;;1.05;0.90;;;;;;;7.17;69.46;101852.00;5055162;28;20037;-84
2021/12/12 10:46:33;;;;;;;1.83;0.90;;;;;;;7.20;70.36;101848.59;5051452;28;20036;-84
2021/12/12 10:49:21;;;;;;;1.75;1.00;;;;;;;7.18;69.36;101848.56;5051613;28;20052;-84
2021/12/12 10:51:56;;;;;;;1.08;0.80;;;;;;;7.19;68.93;101845.16;5058273;28;20250;-84
2021/12/12 10:54:29;;;;;;;2.15;0.65;;;;;;;7.25;69.52;101841.75;5059315;28;20032;-84
2021/12/12 10:57:07;;;;;;;1.17;0.90;;;;;;;7.29;69.40;101836.59;5056394;28;20036;-83
2021/12/12 10:59:43;;;;;;;1.40;0.85;;;;;;;7.27;69.82;101842.63;5053081;28;20552;-84
2021/12/12 11:02:13;;;;;;;1.10;0.70;;;;;;;7.23;68.53;101841.72;5055265;28;20036;-84
2021/12/12 11:04:49;;;;;;;1.15;0.70;;;;;;;7.28;69.56;101836.63;5055991;28;20093;-84
2021/12/12 11:07:25;;;;;;;1.65;0.90;;;;;;;7.23;69.87;101833.13;5056674;28;20045;-84
2021/12/12 11:10:05;;;;;;;2.03;1.10;;;;;;;7.26;68.41;101835.72;5042185;28;20034;-84
2021/12/12 11:12:30;;;;;;;2.00;0.80;;;;;;;7.28;68.59;101834.91;5051355;28;20044;-84
2021/12/12 11:15:30;;;;;;;1.73;0.98;;;;;;;7.23;69.04;101836.56;5055281;28;20070;-83
2021/12/12 11:18:03;;;;;;;2.88;0.90;;;;;;;7.20;69.20;101839.09;5070013;28;20028;-83
2021/12/12 11:20:43;;;;;;;1.93;0.93;;;;;;;7.31;69.31;101839.22;5072217;28;20021;-84
2021/12/12 11:23:17;;;;;;;2.30;0.90;;;;;;;7.31;69.65;101840.09;5056319;28;20036;-84
2021/12/12 11:26:04;;;;;;;1.35;1.10;;;;;;;7.23;69.71;101835.72;5046943;28;20124;-84
2021/12/12 11:28:46;;;;;;;1.58;0.93;;;;;;;7.27;69.60;101840.03;5053667;28;20067;-84
2021/12/12 11:31:16;;;;;;;2.03;1.00;;;;;;;7.31;69.61;101841.81;5048040;28;20033;-84
2021/12/12 11:33:46;;;;;;;2.85;1.10;;;;;;;7.25;69.75;101841.75;5056160;28;20035;-84
2021/12/12 11:36:15;;;;;;;1.95;1.05;;;;;;;7.33;70.24;101846.13;5052496;28;20129;-84
2021/12/12 11:39:04;;;;;;;1.88;1.33;;;;;;;7.27;70.02;101848.66;5055048;28;20106;-84
2021/12/12 11:41:48;;;;;;;3.35;1.20;;;;;;;7.30;70.24;101847.81;5057012;28;20127;-84
2021/12/12 11:44:21;;;;;;;3.47;1.13;;;;;;;7.18;70.63;101858.91;5054809;28;20033;-84
2021/12/12 11:47:19;;;;;;;1.95;1.13;;;;;;;7.27;70.03;101852.97;5056875;28;20120;-84
2021/12/12 11:49:58;;;;;;;2.67;1.10;;;;;;;7.37;69.65;101850.50;5044355;28;20568;-84
2021/12/12 11:53:10;;;;;;;1.50;1.00;;;;;;;7.35;69.65;101843.56;5058750;28;20505;-84
2021/12/12 11:55:42;;;;;;;4.28;1.27;;;;;;;7.38;70.70;101849.63;5049521;28;20051;-84
2021/12/12 11:58:30;;;;;;;2.45;1.27;;;;;;;7.35;70.72;101844.41;5050161;28;20095;-84
2021/12/12 12:01:23;;;;;;;2.28;1.27;;;;;;;7.44;70.73;101848.81;5060130;28;20041;-84
2021/12/12 12:04:33;;;;;;;4.97;1.38;;;;;;;7.46;71.10;101852.28;5053700;28;20037;-84
2021/12/12 12:07:04;;;;;;;2.50;1.50;;;;;;;7.52;70.89;101852.34;5055513;28;20033;-84
2021/12/12 12:10:04;;;;;;;3.72;1.20;;;;;;;7.56;70.36;101849.78;5050881;28;20063;-84
2021/12/12 12:13:07;;;;;;;2.70;1.15;;;;;;;7.58;70.73;101853.25;5051302;28;20071;-84
2021/12/12 12:16:03;;;;;;;3.13;1.20;;;;;;;7.60;70.39;101848.09;5056950;28;20024;-84
2021/12/12 12:18:40;;;;;;;2.38;0.80;;;;;;;7.62;71.16;101849.84;5057060;28;20039;-84
2021/12/12 12:21:27;;;;;;;1.63;1.10;;;;;;;7.59;72.05;101848.94;5058729;28;20078;-83